createdAt,value
2022-12-08T00:02:04.068Z,0.30
2022-12-08T00:05:09.459Z,0.30
2022-12-08T00:08:08.018Z,0.30
2022-12-08T00:10:55.121Z,0.40
2022-12-08T00:13:35.012Z,0.40
2022-12-08T00:16:22.161Z,0.40
2022-12-08T00:19:02.018Z,0.30
2022-12-08T00:21:49.046Z,0.40
2022-12-08T00:24:30.015Z,0.40
2022-12-08T00:27:25.942Z,0.40
2022-12-08T00:30:13.125Z,0.40
2022-12-08T00:32:53.016Z,0.40
2022-12-08T00:35:34.220Z,0.40
2022-12-08T00:38:22.049Z,0.40
2022-12-08T00:41:09.131Z,0.40
2022-12-08T00:43:48.936Z,0.40
2022-12-08T00:46:36.105Z,0.40
2022-12-08T00:49:16.051Z,0.40
2022-12-08T00:52:03.096Z,0.40
2022-12-08T00:54:42.970Z,0.40
2022-12-08T00:57:30.450Z,0.40
2022-12-08T01:00:10.999Z,0.40
2022-12-08T01:02:58.032Z,0.40
2022-12-08T01:05:45.114Z,0.50
2022-12-08T01:08:32.089Z,0.40
2022-12-08T01:11:20.062Z,0.40
2022-12-08T01:14:00.253Z,0.40
2022-12-08T01:16:48.120Z,0.40
2022-12-08T01:19:35.119Z,0.40
2022-12-08T01:22:16.074Z,0.40
2022-12-08T01:25:03.261Z,0.40
2022-12-08T01:27:50.092Z,0.40
2022-12-08T01:30:30.203Z,0.50
2022-12-08T01:33:17.131Z,0.40
2022-12-08T01:36:04.107Z,0.50
2022-12-08T01:38:51.125Z,0.40
2022-12-08T01:41:32.106Z,0.40
2022-12-08T01:44:19.262Z,0.40
2022-12-08T01:47:00.128Z,0.40
2022-12-08T01:49:47.377Z,0.40
2022-12-08T01:52:34.046Z,0.40
2022-12-08T01:55:42.642Z,0.40
2022-12-08T01:58:27.089Z,0.40
2022-12-08T02:01:07.592Z,0.40
2022-12-08T02:03:57.477Z,0.40
2022-12-08T02:06:45.232Z,0.40
2022-12-08T02:09:26.120Z,0.40
2022-12-08T02:12:13.319Z,0.40
2022-12-08T02:14:53.134Z,0.40
2022-12-08T02:17:55.269Z,0.40
2022-12-08T02:20:46.056Z,0.30
2022-12-08T02:23:44.826Z,0.40
2022-12-08T02:26:47.074Z,0.30
2022-12-08T02:29:41.138Z,0.40
2022-12-08T02:32:35.230Z,0.30
2022-12-08T02:35:43.087Z,0.30
2022-12-08T02:38:42.265Z,0.30
2022-12-08T02:41:38.101Z,0.30
2022-12-08T02:44:29.319Z,0.30
2022-12-08T02:47:21.136Z,0.40
2022-12-08T02:50:04.416Z,0.40
2022-12-08T02:52:52.166Z,0.40
2022-12-08T02:55:34.224Z,0.30
2022-12-08T02:58:34.114Z,0.40
2022-12-08T03:01:30.291Z,0.40
2022-12-08T03:04:17.551Z,0.40
2022-12-08T03:07:10.101Z,0.40
2022-12-08T03:10:17.140Z,0.40
2022-12-08T03:13:08.161Z,0.30
2022-12-08T03:15:56.627Z,0.30
2022-12-08T03:18:38.117Z,0.40
2022-12-08T03:21:26.390Z,0.30
2022-12-08T03:24:09.186Z,0.30
2022-12-08T03:27:12.199Z,0.30
2022-12-08T03:30:01.225Z,0.30
2022-12-08T03:32:48.149Z,0.30
2022-12-08T03:35:30.029Z,0.30
2022-12-08T03:38:19.116Z,0.30
2022-12-08T03:41:18.174Z,0.30
2022-12-08T03:44:06.238Z,0.30
2022-12-08T03:46:55.336Z,0.30
2022-12-08T03:49:35.259Z,0.30
2022-12-08T03:52:22.336Z,0.30
2022-12-08T03:55:02.122Z,0.30
2022-12-08T03:57:49.333Z,0.30
2022-12-08T04:00:29.240Z,0.30
2022-12-08T04:03:09.441Z,0.30
2022-12-08T04:05:56.138Z,0.30
2022-12-08T04:08:43.331Z,0.30
2022-12-08T04:11:23.239Z,0.30
2022-12-08T04:14:10.758Z,0.30
2022-12-08T04:16:50.264Z,0.30
2022-12-08T04:19:30.431Z,0.30
2022-12-08T04:22:17.252Z,0.30
2022-12-08T04:25:04.385Z,0.30
2022-12-08T04:27:51.178Z,0.30
2022-12-08T04:30:31.310Z,0.30
2022-12-08T04:33:18.250Z,0.30
2022-12-08T04:36:05.303Z,0.30
2022-12-08T04:38:52.311Z,0.30
2022-12-08T04:41:39.274Z,0.30
2022-12-08T04:44:26.390Z,0.30
2022-12-08T04:47:06.358Z,0.30
2022-12-08T04:49:53.461Z,0.30
2022-12-08T04:52:33.271Z,0.30
2022-12-08T04:55:20.487Z,0.30
2022-12-08T04:58:00.290Z,0.30
2022-12-08T05:00:47.483Z,0.40
2022-12-08T05:03:28.868Z,0.40
2022-12-08T05:06:17.457Z,0.40
2022-12-08T05:08:57.652Z,0.30
2022-12-08T05:11:48.758Z,0.40
2022-12-08T05:14:29.492Z,0.40
2022-12-08T05:17:16.312Z,0.40
2022-12-08T05:19:56.290Z,0.40
2022-12-08T05:22:43.472Z,0.40
2022-12-08T05:25:23.352Z,0.30
2022-12-08T05:28:40.706Z,0.30
2022-12-08T05:31:17.741Z,0.40
2022-12-08T05:34:05.298Z,0.40
2022-12-08T05:36:52.349Z,0.40
2022-12-08T05:39:47.241Z,0.40
2022-12-08T05:42:27.448Z,0.40
2022-12-08T05:45:14.279Z,0.40
2022-12-08T05:47:54.366Z,0.40
2022-12-08T05:50:41.339Z,0.40
2022-12-08T05:53:28.470Z,0.40
2022-12-08T05:56:08.318Z,0.40
2022-12-08T05:58:55.474Z,0.40
2022-12-08T06:01:36.404Z,0.40
2022-12-08T06:04:23.407Z,0.40
2022-12-08T06:07:03.374Z,0.40
2022-12-08T06:09:50.375Z,0.40
2022-12-08T06:12:31.333Z,0.40
2022-12-08T06:15:18.476Z,0.40
2022-12-08T06:17:58.440Z,0.40
2022-12-08T06:20:52.382Z,0.40
2022-12-08T06:23:39.447Z,0.40
2022-12-08T06:26:20.443Z,0.40
2022-12-08T06:29:14.375Z,0.40
2022-12-08T06:32:01.522Z,0.40
2022-12-08T06:34:41.389Z,0.40
2022-12-08T06:37:28.385Z,0.30
2022-12-08T06:40:08.399Z,0.30
2022-12-08T06:42:55.407Z,0.30
2022-12-08T06:45:35.466Z,0.30
2022-12-08T06:48:22.312Z,0.30
2022-12-08T06:51:02.386Z,0.30
2022-12-08T06:53:50.317Z,0.20
2022-12-08T06:56:30.493Z,0.30
2022-12-08T06:59:17.382Z,0.30
2022-12-08T07:01:57.632Z,0.30
2022-12-08T07:04:44.357Z,0.40
2022-12-08T07:07:24.425Z,0.30
2022-12-08T07:10:11.460Z,0.30
2022-12-08T07:12:52.482Z,0.30
2022-12-08T07:15:39.443Z,0.40
2022-12-08T07:18:19.451Z,0.40
2022-12-08T07:21:26.391Z,0.40
2022-12-08T07:24:06.459Z,0.40
2022-12-08T07:26:53.330Z,0.40
2022-12-08T07:29:47.434Z,0.40
2022-12-08T07:32:28.576Z,0.40
2022-12-08T07:37:57.837Z,0.50
2022-12-08T07:40:44.403Z,0.40
2022-12-08T07:43:31.475Z,0.50
2022-12-08T07:46:11.466Z,0.50
2022-12-08T07:48:59.069Z,0.50
2022-12-08T07:51:38.445Z,0.40
2022-12-08T07:54:25.555Z,0.40
2022-12-08T07:57:05.430Z,0.30
2022-12-08T07:59:52.500Z,0.30
2022-12-08T08:02:32.485Z,0.30
2022-12-08T08:05:20.807Z,0.30
2022-12-08T08:08:00.518Z,0.30
2022-12-08T08:10:47.616Z,0.30
2022-12-08T08:13:27.456Z,0.30
2022-12-08T08:16:08.992Z,0.30
2022-12-08T08:18:55.492Z,0.30
2022-12-08T08:21:46.425Z,0.30
2022-12-08T08:24:28.489Z,0.30
2022-12-08T08:27:22.399Z,0.30
2022-12-08T08:30:09.579Z,0.30
2022-12-08T08:32:50.485Z,0.30
2022-12-08T08:35:37.666Z,0.20
2022-12-08T08:38:17.475Z,0.20
2022-12-08T08:41:04.591Z,0.30
2022-12-08T08:43:45.507Z,0.30
2022-12-08T08:46:32.644Z,0.30
2022-12-08T08:49:12.412Z,0.40
2022-12-08T08:51:52.663Z,0.40
2022-12-08T08:54:41.448Z,0.40
2022-12-08T08:57:28.592Z,0.40
2022-12-08T09:00:09.444Z,0.40
2022-12-08T09:02:58.824Z,0.40
2022-12-08T09:05:38.460Z,0.40
2022-12-08T09:08:27.641Z,0.40
2022-12-08T09:11:07.455Z,0.50
2022-12-08T09:13:54.643Z,0.50
2022-12-08T09:16:40.398Z,0.50
2022-12-08T09:19:28.590Z,0.60
2022-12-08T09:22:08.455Z,0.60
2022-12-08T09:24:55.600Z,0.70
2022-12-08T09:27:42.571Z,1.10
2022-12-08T09:30:22.588Z,1.70
2022-12-08T09:33:10.497Z,2.20
2022-12-08T09:35:50.587Z,2.50
2022-12-08T09:38:37.575Z,2.80
2022-12-08T09:41:22.581Z,2.80
2022-12-08T09:44:21.500Z,3.30
2022-12-08T09:47:02.796Z,3.70
2022-12-08T09:49:53.934Z,3.50
2022-12-08T09:52:44.645Z,3.30
2022-12-08T09:55:28.919Z,2.80
2022-12-08T09:58:17.482Z,2.40
2022-12-08T10:01:04.656Z,2.20
2022-12-08T10:03:44.586Z,2.20
2022-12-08T10:06:38.630Z,2.20
2022-12-08T10:09:24.488Z,2.10
2022-12-08T10:12:11.703Z,2.50
2022-12-08T10:15:13.645Z,3.00
2022-12-08T10:18:00.604Z,3.50
2022-12-08T10:20:45.636Z,3.20
2022-12-08T10:23:45.660Z,3.20
2022-12-08T10:26:27.587Z,3.50
2022-12-08T10:29:25.625Z,4.00
2022-12-08T10:32:29.572Z,4.10
2022-12-08T10:35:20.544Z,3.70
2022-12-08T10:38:08.721Z,3.40
2022-12-08T10:40:50.565Z,3.40
2022-12-08T10:43:37.739Z,3.30
2022-12-08T10:46:18.651Z,3.30
2022-12-08T10:49:01.830Z,3.20
2022-12-08T10:51:48.617Z,3.30
2022-12-08T10:54:37.437Z,3.40
2022-12-08T10:57:26.624Z,3.30
2022-12-08T11:00:14.559Z,3.20
2022-12-08T11:03:00.759Z,3.40
2022-12-08T11:05:47.676Z,3.50
2022-12-08T11:08:28.671Z,3.50
2022-12-08T11:11:08.901Z,3.30
2022-12-08T11:13:55.556Z,3.50
2022-12-08T11:16:49.684Z,3.90
2022-12-08T11:19:36.679Z,4.30
2022-12-08T11:22:31.637Z,4.70
2022-12-08T11:25:32.150Z,4.80
2022-12-08T11:28:18.546Z,4.50
2022-12-08T11:31:09.815Z,4.30
2022-12-08T11:33:50.594Z,4.10
2022-12-08T11:36:38.774Z,3.90
2022-12-08T11:39:19.559Z,3.70
2022-12-08T11:42:03.086Z,3.50
2022-12-08T11:44:52.578Z,3.30
2022-12-08T11:47:52.675Z,3.10
2022-12-08T11:50:38.623Z,2.90
2022-12-08T11:53:52.573Z,2.70
2022-12-08T11:56:46.730Z,2.40
2022-12-08T11:59:31.711Z,2.20
2022-12-08T12:02:22.791Z,2.10
2022-12-08T12:05:08.850Z,2.10
2022-12-08T12:08:03.005Z,2.00
2022-12-08T12:10:53.720Z,2.00
2022-12-08T12:13:44.422Z,1.90
2022-12-08T12:16:31.710Z,1.90
2022-12-08T12:19:22.753Z,1.90
2022-12-08T12:22:03.843Z,1.80
2022-12-08T12:25:02.717Z,1.70
2022-12-08T12:27:57.746Z,1.60
2022-12-08T12:30:58.744Z,1.50
2022-12-08T12:33:39.868Z,1.40
2022-12-08T12:36:26.744Z,1.40
2022-12-08T12:39:10.377Z,1.40
2022-12-08T12:42:02.647Z,1.30
2022-12-08T12:44:44.819Z,1.20
2022-12-08T12:47:56.725Z,1.20
2022-12-08T12:50:43.732Z,1.10
2022-12-08T12:53:30.787Z,1.10
2022-12-08T12:56:11.666Z,1.10
2022-12-08T12:58:53.788Z,1.00
2022-12-08T13:01:50.700Z,0.90
2022-12-08T13:04:39.761Z,0.80
2022-12-08T13:07:27.785Z,0.80
2022-12-08T13:10:32.870Z,0.70
2022-12-08T13:13:22.800Z,0.70
2022-12-08T13:16:21.958Z,0.70
2022-12-08T13:19:07.152Z,0.60
2022-12-08T13:21:53.935Z,0.60
2022-12-08T13:24:36.875Z,0.50
2022-12-08T13:27:23.876Z,0.50
2022-12-08T13:30:28.726Z,0.50
2022-12-08T13:33:18.439Z,0.40
2022-12-08T13:36:17.659Z,0.40
2022-12-08T13:39:07.679Z,0.40
2022-12-08T13:41:59.036Z,0.30
2022-12-08T13:57:14.435Z,0.10
2022-12-08T14:00:01.775Z,0.10
2022-12-08T14:02:52.891Z,0.10
2022-12-08T14:06:10.637Z,0.10
2022-12-08T14:09:06.646Z,0.10
2022-12-08T14:11:54.817Z,0.00
2022-12-08T14:15:05.448Z,0.00
2022-12-08T14:17:46.755Z,0.00
2022-12-08T14:20:51.809Z,-0.10
2022-12-08T14:23:34.836Z,-0.10
2022-12-08T14:26:22.306Z,-0.10
2022-12-08T14:29:01.912Z,-0.10
2022-12-08T14:31:55.841Z,-0.10
2022-12-08T14:34:42.977Z,-0.20
2022-12-08T14:37:22.745Z,-0.20
2022-12-08T14:40:15.628Z,-0.20
2022-12-08T14:42:58.767Z,-0.20
2022-12-08T14:45:45.978Z,-0.20
2022-12-08T14:48:33.870Z,-0.20
2022-12-08T14:51:14.091Z,-0.20
2022-12-08T14:54:20.954Z,-0.20
2022-12-08T14:57:01.620Z,-0.30
2022-12-08T14:59:49.882Z,-0.20
2022-12-08T15:02:31.974Z,-0.30
2022-12-08T15:05:23.849Z,-0.20
2022-12-08T15:08:13.059Z,-0.30
2022-12-08T15:10:54.886Z,-0.20
2022-12-08T15:13:41.863Z,-0.20
2022-12-08T15:16:50.780Z,-0.20
2022-12-08T15:19:38.899Z,-0.10
2022-12-08T15:22:23.150Z,-0.10
2022-12-08T15:25:09.887Z,0.00
2022-12-08T15:27:50.880Z,-0.10
2022-12-08T15:30:37.922Z,-0.10
2022-12-08T15:33:17.946Z,-0.10
2022-12-08T15:36:04.899Z,-0.10
2022-12-08T15:38:45.010Z,-0.10
2022-12-08T15:41:31.855Z,0.00
2022-12-08T15:44:11.938Z,-0.10
2022-12-08T15:46:58.994Z,-0.10
2022-12-08T15:49:41.566Z,-0.10
2022-12-08T15:52:31.107Z,-0.10
2022-12-08T15:55:10.990Z,-0.10
2022-12-08T16:01:00.060Z,0.00
2022-12-08T16:09:49.068Z,-0.10
2022-12-08T16:16:00.375Z,-0.20
2022-12-08T16:18:47.992Z,-0.20
2022-12-08T16:24:34.887Z,-0.20
2022-12-08T16:30:24.922Z,-0.20
2022-12-08T16:33:05.198Z,-0.10
2022-12-08T16:35:51.972Z,-0.10
2022-12-08T16:38:38.946Z,0.00
2022-12-08T16:41:44.447Z,-0.10
2022-12-08T16:44:23.889Z,-0.10
2022-12-08T16:47:14.978Z,-0.10
2022-12-08T16:49:54.956Z,0.00
2022-12-08T16:52:42.084Z,0.00
2022-12-08T16:55:23.914Z,0.00
2022-12-08T16:58:11.003Z,0.10
2022-12-08T17:00:50.892Z,0.10
2022-12-08T17:03:38.018Z,0.00
2022-12-08T17:06:22.909Z,0.10
2022-12-08T17:09:10.078Z,0.10
2022-12-08T17:11:49.913Z,0.10
2022-12-08T17:14:32.027Z,0.20
2022-12-08T17:17:18.974Z,0.20
2022-12-08T17:20:06.607Z,0.20
2022-12-08T17:22:47.031Z,0.20
2022-12-08T17:25:34.099Z,0.20
2022-12-08T17:28:22.439Z,0.20
2022-12-08T17:31:24.687Z,0.20
2022-12-08T17:34:09.015Z,0.20
2022-12-08T17:36:56.275Z,0.20
2022-12-08T17:39:35.982Z,0.20
2022-12-08T17:42:26.090Z,0.20
2022-12-08T17:45:06.106Z,0.20
2022-12-08T17:48:00.449Z,0.20
2022-12-08T17:50:48.055Z,0.10
2022-12-08T17:53:32.840Z,0.20
2022-12-08T17:56:25.171Z,0.20
2022-12-08T17:59:05.026Z,0.10
2022-12-08T18:01:45.263Z,0.10
2022-12-08T18:04:31.998Z,0.10
2022-12-08T18:07:12.187Z,0.10
2022-12-08T18:10:02.015Z,0.10
2022-12-08T18:12:53.782Z,0.10
2022-12-08T18:15:38.948Z,0.10
2022-12-08T18:18:26.063Z,0.10
2022-12-08T18:21:09.034Z,0.10
2022-12-08T18:23:56.048Z,0.10
2022-12-08T18:26:37.110Z,0.10
2022-12-08T18:29:24.134Z,0.00
2022-12-08T18:32:04.041Z,0.10
2022-12-08T18:34:51.141Z,0.10
2022-12-08T18:37:31.056Z,0.10
2022-12-08T18:40:18.099Z,0.10
2022-12-08T18:42:58.085Z,0.10
2022-12-08T18:45:45.694Z,0.00
2022-12-08T18:48:24.984Z,0.00
2022-12-08T18:51:16.108Z,0.00
2022-12-08T18:53:56.070Z,0.00
2022-12-08T18:56:43.223Z,0.00
2022-12-08T18:59:23.474Z,-0.10
2022-12-08T19:02:17.016Z,-0.10
2022-12-08T19:05:04.233Z,-0.10
2022-12-08T19:07:44.144Z,-0.10
2022-12-08T19:10:32.315Z,-0.20
2022-12-08T19:13:13.136Z,-0.10
2022-12-08T19:16:00.183Z,-0.10
2022-12-08T19:18:40.112Z,-0.10
2022-12-08T19:21:20.486Z,-0.10
2022-12-08T19:24:07.021Z,-0.20
2022-12-08T19:26:47.309Z,-0.10
2022-12-08T19:29:34.014Z,-0.20
2022-12-08T19:32:21.246Z,-0.20
2022-12-08T19:35:01.118Z,-0.10
2022-12-08T19:37:48.172Z,-0.20
2022-12-08T19:40:47.102Z,-0.20
2022-12-08T19:43:55.861Z,-0.20
2022-12-08T19:46:40.256Z,-0.30
2022-12-08T19:49:27.321Z,-0.30
2022-12-08T19:52:07.177Z,-0.30
2022-12-08T19:54:54.104Z,-0.30
2022-12-08T19:57:34.183Z,-0.30
2022-12-08T20:00:21.140Z,-0.30
2022-12-08T20:03:02.121Z,-0.30
2022-12-08T20:05:50.140Z,-0.30
2022-12-08T20:08:30.384Z,-0.30
2022-12-08T20:11:17.256Z,-0.30
2022-12-08T20:13:57.227Z,-0.40
2022-12-08T20:16:44.207Z,-0.40
2022-12-08T20:19:24.349Z,-0.40
2022-12-08T20:22:11.159Z,-0.50
2022-12-08T20:24:58.277Z,-0.50
2022-12-08T20:27:47.118Z,-0.50
2022-12-08T20:30:34.317Z,-0.50
2022-12-08T20:33:14.173Z,-0.50
2022-12-08T20:35:59.250Z,-0.50
2022-12-08T20:38:46.162Z,-0.60
2022-12-08T20:41:38.799Z,-0.60
2022-12-08T20:44:19.133Z,-0.60
2022-12-08T20:47:06.268Z,-0.60
2022-12-08T20:49:46.269Z,-0.50
2022-12-08T20:52:40.273Z,-0.60
2022-12-08T20:55:27.301Z,-0.60
2022-12-08T20:58:08.257Z,-0.60
2022-12-08T21:00:55.417Z,-0.60
2022-12-08T21:03:35.320Z,-0.60
2022-12-08T21:06:15.769Z,-0.70
2022-12-08T21:09:02.248Z,-0.60
2022-12-08T21:11:42.460Z,-0.70
2022-12-08T21:14:29.415Z,-0.60
2022-12-08T21:17:16.470Z,-0.60
2022-12-08T21:19:56.313Z,-0.60
2022-12-08T21:22:36.927Z,-0.70
2022-12-08T21:25:24.344Z,-0.60
2022-12-08T21:28:04.409Z,-0.60
2022-12-08T21:30:55.374Z,-0.60
2022-12-08T21:33:35.905Z,-0.70
2022-12-08T21:36:28.335Z,-0.70
2022-12-08T21:39:15.314Z,-0.80
2022-12-08T21:42:14.357Z,-0.70
2022-12-08T21:44:54.579Z,-0.80
2022-12-08T21:47:41.374Z,-0.80
2022-12-08T21:50:28.532Z,-0.70
2022-12-08T21:53:08.345Z,-0.70
2022-12-08T21:55:55.434Z,-0.70
2022-12-08T21:58:46.174Z,-0.70
2022-12-08T22:01:33.549Z,-0.70
2022-12-08T22:04:13.341Z,-0.70
2022-12-08T22:07:07.525Z,-0.70
2022-12-08T22:09:54.671Z,-0.70
2022-12-08T22:12:34.386Z,-0.70
2022-12-08T22:15:21.467Z,-0.70
2022-12-08T22:18:04.495Z,-0.70
2022-12-08T22:20:51.567Z,-0.70
2022-12-08T22:23:35.352Z,-0.70
2022-12-08T22:26:22.346Z,-0.70
2022-12-08T22:29:16.443Z,-0.70
2022-12-08T22:31:56.626Z,-0.80
2022-12-08T22:34:43.342Z,-0.70
2022-12-08T22:37:30.522Z,-0.70
2022-12-08T22:40:11.599Z,-0.70
2022-12-08T22:42:58.336Z,-0.70
2022-12-08T22:45:38.318Z,-0.60
2022-12-08T22:48:25.452Z,-0.60
2022-12-08T22:51:06.294Z,-0.60
2022-12-08T22:53:53.363Z,-0.70
2022-12-08T22:56:33.206Z,-0.70
2022-12-08T22:59:20.566Z,-0.70
2022-12-08T23:02:00.384Z,-0.70
2022-12-08T23:04:47.524Z,-0.70
2022-12-08T23:07:27.303Z,-0.70
2022-12-08T23:10:15.321Z,-0.70
2022-12-08T23:12:58.007Z,-0.70
2022-12-08T23:15:54.401Z,-0.70
2022-12-08T23:18:41.379Z,-0.70
2022-12-08T23:21:23.407Z,-0.70
2022-12-08T23:24:10.449Z,-0.70
2022-12-08T23:26:50.516Z,-0.70
2022-12-08T23:29:44.441Z,-0.70
2022-12-08T23:32:31.325Z,-0.80
2022-12-08T23:35:12.719Z,-0.80
2022-12-08T23:38:00.376Z,-0.90
2022-12-08T23:40:40.568Z,-0.90
2022-12-08T23:43:27.271Z,-0.90
2022-12-08T23:46:07.584Z,-0.90
2022-12-08T23:48:54.262Z,-0.90
2022-12-08T23:51:34.534Z,-0.90
2022-12-08T23:54:21.455Z,-0.90
2022-12-08T23:57:01.561Z,-0.80
2022-12-08T23:59:48.344Z,-0.80
